Time;durP1;ratioP1;P1;durP2;ratioP2;P2;SDS_P1;SDS_P2;PMS_P1;PMS_P2;Temp;Humidity;BMP_temperature;BMP_pressure;BME280_temperature;BME280_humidity;BME280_pressure;Samples;Min_cycle;Max_cycle;Signal;HPM_P1;HPM_P2
2022/10/01 00:00:12;;;;;;;16.55;4.45;;;;;;;22.56;68.69;101553.34;2112233;28;20520;-73
2022/10/01 00:01:36;;;;;;;16.60;3.70;;;;;;;22.51;68.59;101552.53;2086412;28;20045;-73
2022/10/01 00:02:58;;;;;;;17.30;3.40;;;;;;;22.52;68.54;101558.81;2101258;28;20079;-73
2022/10/01 00:04:20;;;;;;;24.88;3.90;;;;;;;22.53;68.40;101552.50;2111091;28;20506;-73
2022/10/01 00:05:43;;;;;;;18.40;3.80;;;;;;;22.55;68.36;101556.94;2102946;28;20040;-73
2022/10/01 00:07:09;;;;;;;21.30;4.65;;;;;;;22.58;68.28;101555.97;2116905;27;20390;-73
2022/10/01 00:08:33;;;;;;;22.92;4.43;;;;;;;22.56;68.26;101553.34;2113778;28;20529;-73
2022/10/01 00:09:54;;;;;;;19.17;5.03;;;;;;;22.57;68.24;101556.94;2110362;28;20487;-73
2022/10/01 00:11:18;;;;;;;19.98;4.15;;;;;;;22.58;68.33;101547.91;2111139;28;20538;-73
2022/10/01 00:12:45;;;;;;;25.73;4.75;;;;;;;22.59;68.50;101552.38;2102812;28;20100;-73
2022/10/01 00:14:08;;;;;;;20.08;3.83;;;;;;;22.58;68.53;101545.22;2110942;28;20051;-73
2022/10/01 00:15:29;;;;;;;22.17;4.15;;;;;;;22.59;68.46;101541.59;2098749;28;20043;-73
2022/10/01 00:16:53;;;;;;;20.20;4.05;;;;;;;22.59;68.41;101538.91;2099118;28;20040;-73
2022/10/01 00:18:14;;;;;;;22.83;3.85;;;;;;;22.59;68.41;101547.88;2094655;28;20048;-73
2022/10/01 00:19:37;;;;;;;14.18;3.15;;;;;;;22.59;68.20;101539.81;2108014;28;20043;-73
2022/10/01 00:20:58;;;;;;;22.55;3.65;;;;;;;22.58;68.18;101537.13;2105229;28;20040;-73
2022/10/01 00:22:21;;;;;;;18.42;4.47;;;;;;;22.56;68.19;101545.28;2102315;28;20052;-73
2022/10/01 00:23:44;;;;;;;14.20;3.80;;;;;;;22.49;68.20;101540.94;2101540;28;20071;-73
2022/10/01 00:25:07;;;;;;;25.65;4.32;;;;;;;22.44;68.22;101545.53;2104977;28;20052;-73
2022/10/01 00:26:32;;;;;;;23.30;3.90;;;;;;;22.41;68.24;101544.69;2107228;28;20044;-73
2022/10/01 00:27:55;;;;;;;13.35;4.00;;;;;;;22.35;68.33;101534.06;2110922;28;20113;-73
2022/10/01 00:29:16;;;;;;;22.73;4.57;;;;;;;22.32;68.10;101547.59;2093484;28;20040;-73
2022/10/01 00:30:46;;;;;;;23.25;3.72;;;;;;;22.26;67.97;101544.06;2103787;28;20066;-73
2022/10/01 00:32:09;;;;;;;18.13;3.60;;;;;;;22.21;67.92;101548.66;2111772;28;20085;-73
2022/10/01 00:33:31;;;;;;;19.85;3.95;;;;;;;22.16;67.90;101541.63;2105115;28;20059;-73
2022/10/01 00:34:54;;;;;;;24.38;5.47;;;;;;;22.18;67.71;101543.38;2102530;28;20539;-73
2022/10/01 00:36:15;;;;;;;26.13;5.35;;;;;;;22.24;67.63;101547.75;2094533;28;20127;-73
2022/10/01 00:37:38;;;;;;;17.63;4.75;;;;;;;22.29;67.47;101545.84;2093433;28;20482;-73
2022/10/01 00:39:01;;;;;;;17.88;3.78;;;;;;;22.34;67.31;101552.00;2107893;28;20698;-73
2022/10/01 00:40:24;;;;;;;15.73;3.67;;;;;;;22.35;67.07;101542.13;2101153;28;20084;-73
2022/10/01 00:41:46;;;;;;;18.20;3.72;;;;;;;22.37;66.89;101543.88;2101828;28;20101;-74
2022/10/01 00:43:22;;;;;;;20.10;4.13;;;;;;;22.40;66.75;101540.22;2102177;28;20040;-74
2022/10/01 00:44:46;;;;;;;15.43;4.05;;;;;;;22.38;66.73;101534.00;2095452;28;20060;-74
2022/10/01 00:46:14;;;;;;;20.80;4.68;;;;;;;22.38;66.67;101537.59;2108266;28;20049;-74
2022/10/01 00:47:42;;;;;;;19.55;4.68;;;;;;;22.38;66.63;101534.00;2104947;28;20435;-74
2022/10/01 00:49:09;;;;;;;14.60;3.78;;;;;;;22.35;66.56;101540.31;2092628;28;20078;-73
2022/10/01 00:50:36;;;;;;;28.42;4.38;;;;;;;22.36;66.59;101533.16;2113866;27;20050;-74
2022/10/01 00:52:02;;;;;;;15.10;3.75;;;;;;;22.37;66.81;101533.13;2104876;28;20048;-73
2022/10/01 00:53:26;;;;;;;20.92;4.00;;;;;;;22.35;66.67;101528.66;2100718;28;20071;-73
2022/10/01 00:54:51;;;;;;;15.07;4.20;;;;;;;22.36;66.52;101525.97;2098951;28;20048;-73
2022/10/01 00:56:14;;;;;;;17.27;3.30;;;;;;;22.34;66.46;101533.16;2108043;28;20051;-73
2022/10/01 00:57:37;;;;;;;22.48;4.13;;;;;;;22.32;66.62;101523.38;2105129;28;20043;-73
2022/10/01 00:58:59;;;;;;;17.55;3.78;;;;;;;22.31;66.67;101530.56;2096431;28;20052;-74
2022/10/01 01:00:22;;;;;;;19.45;3.88;;;;;;;22.30;66.86;101541.34;2099818;28;20039;-73
2022/10/01 01:01:43;;;;;;;18.67;3.88;;;;;;;22.24;66.85;101539.66;2107691;28;20049;-73
2022/10/01 01:03:10;;;;;;;11.55;2.67;;;;;;;22.14;66.79;101536.25;2101703;28;20165;-73
2022/10/01 01:04:32;;;;;;;17.20;3.67;;;;;;;22.06;66.79;101542.69;2100428;28;20051;-73
2022/10/01 01:05:54;;;;;;;13.82;4.15;;;;;;;22.00;66.81;101545.50;2090659;28;20091;-73
2022/10/01 01:07:17;;;;;;;18.40;3.40;;;;;;;21.96;66.87;101544.69;2091188;28;20076;-73
2022/10/01 01:08:41;;;;;;;22.15;4.25;;;;;;;21.98;66.68;101540.19;2107961;28;20048;-73
2022/10/01 01:10:06;;;;;;;16.83;3.58;;;;;;;22.00;66.82;101545.50;2104963;28;20483;-73
2022/10/01 01:11:33;;;;;;;19.50;4.07;;;;;;;22.02;66.81;101541.88;2104946;28;20101;-73
2022/10/01 01:13:07;;;;;;;17.92;4.72;;;;;;;22.03;66.90;101545.47;2110832;28;20181;-73
2022/10/01 01:14:38;;;;;;;22.23;4.80;;;;;;;22.04;66.91;101542.75;2103700;28;20093;-73
2022/10/01 01:16:06;;;;;;;16.80;4.30;;;;;;;22.06;66.89;101542.69;2110448;28;20047;-73
2022/10/01 01:17:32;;;;;;;18.38;4.18;;;;;;;22.07;66.67;101550.75;2111546;28;20047;-73
2022/10/01 01:19:03;;;;;;;19.95;3.88;;;;;;;22.09;66.44;101556.09;2104156;28;20040;-73
2022/10/01 01:20:50;;;;;;;21.55;4.15;;;;;;;22.10;66.36;101549.81;2111797;28;20152;-73
2022/10/01 01:22:15;;;;;;;11.75;3.40;;;;;;;22.10;66.36;101553.38;2105031;28;20093;-73
2022/10/01 01:23:59;;;;;;;19.55;4.00;;;;;;;22.12;66.36;101554.22;2102525;28;20056;-73
2022/10/01 01:25:31;;;;;;;24.92;4.05;;;;;;;22.09;66.28;101556.09;2112049;28;20039;-73
2022/10/01 01:27:05;;;;;;;25.60;4.25;;;;;;;22.09;66.36;101553.41;2102552;28;20040;-73
2022/10/01 01:28:33;;;;;;;17.75;3.88;;;;;;;22.07;66.22;101561.50;2111331;28;20051;-73
2022/10/01 01:30:03;;;;;;;30.17;4.43;;;;;;;22.06;66.25;101565.09;2110177;28;20056;-73
2022/10/01 01:31:30;;;;;;;14.27;4.15;;;;;;;22.05;66.27;101562.47;2113120;28;20150;-73
2022/10/01 01:33:03;;;;;;;19.30;5.05;;;;;;;22.01;66.43;101569.69;2102844;28;20412;-73
2022/10/01 01:34:29;;;;;;;18.98;4.00;;;;;;;21.97;66.54;101565.28;2102197;28;20044;-73
2022/10/01 01:35:56;;;;;;;26.25;3.95;;;;;;;21.99;66.57;101565.28;2101733;28;20056;-73
2022/10/01 01:37:24;;;;;;;15.18;3.70;;;;;;;21.99;66.69;101560.75;2111302;28;20519;-73
2022/10/01 01:38:52;;;;;;;25.38;3.67;;;;;;;21.99;66.57;101552.69;2104815;28;20044;-72
2022/10/01 01:40:17;;;;;;;23.05;4.55;;;;;;;22.00;66.29;101553.56;2102720;28;20048;-73
2022/10/01 01:41:48;;;;;;;22.08;4.53;;;;;;;22.01;66.01;101561.63;2111046;28;20055;-73
2022/10/01 01:43:18;;;;;;;14.70;3.80;;;;;;;22.03;65.85;101558.91;2113666;28;20050;-73
2022/10/01 01:44:45;;;;;;;15.57;4.03;;;;;;;22.02;65.63;101555.31;2104228;28;20043;-74
2022/10/01 01:46:12;;;;;;;18.63;4.43;;;;;;;22.03;65.48;101558.91;2102493;28;20110;-74
2022/10/01 01:47:34;;;;;;;15.15;3.20;;;;;;;22.04;65.39;101566.94;2101681;28;20096;-74
2022/10/01 01:48:56;;;;;;;;;;;;;;;21.99;65.29;101568.81;2095780;28;20513;-73
2022/10/01 01:50:18;;;;;;;17.58;3.47;;;;;;;21.96;65.55;101571.56;2101292;28;19957;-73
2022/10/01 01:51:43;;;;;;;;;;;;;;;21.94;65.61;101569.78;2096142;28;20079;-74
2022/10/01 01:53:06;;;;;;;17.38;4.22;;;;;;;21.96;65.66;101574.25;2101864;28;20011;-73
2022/10/01 01:54:29;;;;;;;25.05;3.40;;;;;;;21.92;65.47;101569.84;2106928;28;20422;-73
2022/10/01 01:55:52;;;;;;;19.17;3.65;;;;;;;21.97;65.33;101569.78;2112565;28;20032;-73
2022/10/01 01:57:17;;;;;;;15.27;3.30;;;;;;;21.97;65.47;101570.66;2112498;28;20052;-73
2022/10/01 01:58:38;;;;;;;23.92;3.78;;;;;;;21.96;65.20;101568.00;2102843;28;20039;-72
2022/10/01 02:00:03;;;;;;;19.45;4.15;;;;;;;21.97;64.97;101575.16;2101141;28;20068;-72
2022/10/01 02:01:33;;;;;;;14.38;3.42;;;;;;;21.95;65.02;101566.19;2109754;28;20052;-73
2022/10/01 02:02:57;;;;;;;20.40;3.53;;;;;;;21.95;65.29;101569.75;2112699;28;20054;-73
2022/10/01 02:04:22;;;;;;;16.17;3.88;;;;;;;21.93;65.04;101568.00;2095540;28;20052;-73
2022/10/01 02:05:55;;;;;;;19.77;3.65;;;;;;;21.92;64.87;101574.31;2101563;28;20144;-73
2022/10/01 02:07:39;;;;;;;20.02;4.68;;;;;;;21.94;64.86;101570.66;2121670;27;20043;-73
2022/10/01 02:09:10;;;;;;;14.60;3.50;;;;;;;21.93;64.48;101568.00;2105908;28;20151;-73
2022/10/01 02:10:42;;;;;;;18.65;3.47;;;;;;;21.93;64.44;101573.38;2111666;28;20078;-73
2022/10/01 02:12:16;;;;;;;15.77;3.50;;;;;;;21.93;64.29;101571.59;2105312;28;20071;-73
2022/10/01 02:13:50;;;;;;;13.38;3.20;;;;;;;21.92;64.32;101568.94;2105540;28;20589;-73
2022/10/01 02:15:22;;;;;;;19.73;3.05;;;;;;;21.92;64.18;101575.22;2104082;28;20048;-73
2022/10/01 02:16:50;;;;;;;17.23;3.55;;;;;;;21.91;64.32;101576.13;2104854;28;20048;-73
2022/10/01 02:18:21;;;;;;;23.30;4.32;;;;;;;21.90;64.42;101579.72;2110308;28;20048;-73
2022/10/01 02:19:50;;;;;;;19.35;4.60;;;;;;;21.88;64.44;101578.84;2104810;28;20079;-73
2022/10/01 02:21:18;;;;;;;20.73;4.20;;;;;;;21.85;64.56;101579.81;2106407;28;20146;-73
2022/10/01 02:22:49;;;;;;;16.40;3.35;;;;;;;21.84;64.59;101578.03;2090835;28;20032;-73
2022/10/01 02:24:21;;;;;;;22.77;4.70;;;;;;;21.84;64.36;101577.16;2109875;28;20387;-73
2022/10/01 02:25:47;;;;;;;17.52;3.83;;;;;;;21.78;64.56;101577.25;2112739;28;20398;-73
2022/10/01 02:27:14;;;;;;;13.20;3.50;;;;;;;21.79;64.47;101582.59;2103802;28;20090;-73
2022/10/01 02:28:38;;;;;;;19.17;3.88;;;;;;;21.79;64.14;101577.19;2108401;28;20077;-74
2022/10/01 02:30:06;;;;;;;20.67;3.67;;;;;;;21.78;64.13;101575.47;2105501;28;20485;-73
2022/10/01 02:31:31;;;;;;;12.23;3.25;;;;;;;21.78;63.99;101577.25;2110608;28;20050;-73
2022/10/01 02:32:58;;;;;;;17.38;3.35;;;;;;;21.77;64.04;101573.69;2111826;28;20081;-73
2022/10/01 02:34:23;;;;;;;17.33;3.55;;;;;;;21.76;63.94;101576.38;2111196;27;20067;-73
2022/10/01 02:35:47;;;;;;;18.05;3.90;;;;;;;21.75;64.07;101583.56;2112079;28;20047;-73
2022/10/01 02:37:12;;;;;;;13.82;3.47;;;;;;;21.76;63.92;101581.75;2111466;28;20138;-73
2022/10/01 02:38:36;;;;;;;19.02;3.70;;;;;;;21.75;63.93;101578.19;2102164;28;20143;-73
2022/10/01 02:40:03;;;;;;;21.77;3.13;;;;;;;21.73;63.85;101579.09;2101358;28;20408;-74
2022/10/01 02:41:29;;;;;;;18.83;3.28;;;;;;;21.71;63.99;101576.47;2109306;27;20071;-73
2022/10/01 02:42:55;;;;;;;18.27;2.33;;;;;;;21.69;64.00;101582.78;2102676;28;20044;-73
2022/10/01 02:44:21;;;;;;;14.82;3.08;;;;;;;21.64;64.13;101581.97;2102943;28;20142;-73
2022/10/01 02:45:47;;;;;;;19.50;4.30;;;;;;;21.62;64.36;101583.78;2103660;28;20142;-72
2022/10/01 02:47:18;;;;;;;18.42;3.53;;;;;;;21.59;64.05;101576.69;2111674;28;20043;-72
2022/10/01 02:48:40;;;;;;;13.52;3.90;;;;;;;21.58;63.96;101580.28;2111781;28;20044;-73
2022/10/01 02:50:04;;;;;;;19.70;3.15;;;;;;;21.59;63.68;101573.13;2102938;28;20205;-73
2022/10/01 02:51:34;;;;;;;16.05;3.05;;;;;;;21.59;63.28;101579.38;2110663;28;20072;-73
2022/10/01 02:53:01;;;;;;;15.57;3.80;;;;;;;21.59;63.28;101584.75;2096242;28;20400;-73
2022/10/01 02:54:29;;;;;;;14.23;2.47;;;;;;;21.61;62.98;101579.31;2107808;28;20047;-73
2022/10/01 02:55:52;;;;;;;18.13;4.22;;;;;;;21.61;62.97;101582.00;2112209;28;20561;-73
2022/10/01 02:57:26;;;;;;;14.52;2.97;;;;;;;21.61;62.72;101580.22;2094607;28;20622;-73
2022/10/01 02:58:48;;;;;;;16.40;2.88;;;;;;;21.61;62.67;101582.91;2111033;28;20054;-73
2022/10/01 03:00:13;;;;;;;21.40;3.95;;;;;;;21.59;62.76;101574.00;2105663;28;20105;-73
2022/10/01 03:01:35;;;;;;;20.48;3.25;;;;;;;21.56;62.77;101582.09;2111220;28;20150;-73
2022/10/01 03:03:00;;;;;;;20.45;3.58;;;;;;;21.56;62.89;101581.22;2102879;28;20048;-73
2022/10/01 03:04:21;;;;;;;14.95;3.13;;;;;;;21.53;62.89;101590.19;2108955;28;20098;-73
2022/10/01 03:05:43;;;;;;;18.48;4.30;;;;;;;21.51;63.13;101593.84;2102690;28;20445;-73
2022/10/01 03:07:05;;;;;;;14.73;3.20;;;;;;;21.47;63.16;101593.88;2102032;28;20131;-73
2022/10/01 03:08:27;;;;;;;14.48;3.25;;;;;;;21.42;63.43;101590.38;2098450;28;20162;-73
2022/10/01 03:09:49;;;;;;;25.83;3.72;;;;;;;21.38;63.40;101596.72;2108148;28;20392;-73
2022/10/01 03:11:13;;;;;;;18.70;3.67;;;;;;;21.34;63.38;101594.97;2113714;28;20081;-73
2022/10/01 03:12:36;;;;;;;27.10;3.67;;;;;;;21.32;63.31;101602.19;2111671;28;20507;-73
2022/10/01 03:13:57;;;;;;;17.25;3.30;;;;;;;21.32;63.27;101596.81;2110985;28;20096;-73
2022/10/01 03:15:20;;;;;;;17.20;2.80;;;;;;;21.33;63.24;101603.94;2101784;28;20436;-73
2022/10/01 03:16:41;;;;;;;17.58;3.97;;;;;;;21.34;62.96;101604.84;2100354;28;20044;-73
2022/10/01 03:18:06;;;;;;;19.60;2.97;;;;;;;21.37;62.70;101605.69;2102592;28;20066;-73
2022/10/01 03:19:29;;;;;;;19.73;3.72;;;;;;;21.39;62.56;101603.88;2096533;28;20085;-73
2022/10/01 03:20:50;;;;;;;20.52;4.18;;;;;;;21.40;62.38;101605.63;2105113;28;20135;-73
2022/10/01 03:22:17;;;;;;;12.40;3.03;;;;;;;21.43;62.39;101607.38;2101506;28;20048;-73
2022/10/01 03:23:39;;;;;;;18.70;4.22;;;;;;;21.40;62.19;101602.03;2105253;28;20052;-73
2022/10/01 03:25:02;;;;;;;18.73;3.97;;;;;;;21.40;62.04;101608.31;2112023;28;20051;-73
2022/10/01 03:26:24;;;;;;;25.50;4.50;;;;;;;21.41;62.05;101611.88;2100915;28;20517;-73
2022/10/01 03:27:46;;;;;;;32.88;3.60;;;;;;;21.40;61.96;101610.13;2099661;28;20040;-73
2022/10/01 03:29:10;;;;;;;16.27;3.13;;;;;;;21.40;62.01;101616.38;2107704;28;20063;-73
2022/10/01 03:30:33;;;;;;;22.52;4.57;;;;;;;21.37;62.13;101613.75;2093176;28;20066;-73
2022/10/01 03:31:54;;;;;;;15.57;3.05;;;;;;;21.36;62.38;101614.66;2099752;28;20098;-73
2022/10/01 03:33:18;;;;;;;18.42;4.13;;;;;;;21.34;62.54;101619.16;2093708;28;20044;-74
2022/10/01 03:34:40;;;;;;;20.02;3.28;;;;;;;21.32;62.76;101618.31;2101880;28;20149;-73
2022/10/01 03:36:02;;;;;;;20.30;4.45;;;;;;;21.33;63.06;101625.44;2111033;28;20054;-73
2022/10/01 03:37:25;;;;;;;12.93;4.03;;;;;;;21.32;63.04;101620.09;2110223;28;20066;-73
2022/10/01 03:38:48;;;;;;;17.85;2.97;;;;;;;21.30;63.21;101620.13;2111017;28;20100;-73
2022/10/01 03:40:11;;;;;;;13.05;2.97;;;;;;;21.30;63.38;101620.13;2101761;28;20186;-73
2022/10/01 03:41:32;;;;;;;14.35;3.17;;;;;;;21.28;63.54;101621.94;2102484;28;20064;-73
2022/10/01 03:42:55;;;;;;;15.93;3.33;;;;;;;21.27;63.91;101630.91;2094028;28;20504;-73
2022/10/01 03:44:16;;;;;;;16.38;3.13;;;;;;;21.27;63.99;101628.22;2112040;27;20542;-73
2022/10/01 03:45:39;;;;;;;19.83;3.05;;;;;;;21.25;64.12;101627.38;2096675;28;20084;-73
2022/10/01 03:47:01;;;;;;;19.33;3.45;;;;;;;21.26;64.01;101622.88;2100949;28;20051;-73
2022/10/01 03:48:24;;;;;;;16.60;2.90;;;;;;;21.27;63.64;101621.94;2110899;28;20059;-73
2022/10/01 03:49:46;;;;;;;15.98;3.17;;;;;;;21.28;63.04;101634.47;2102518;28;20063;-73
2022/10/01 03:51:08;;;;;;;20.00;3.20;;;;;;;21.28;62.66;101631.78;2102623;28;20817;-73
2022/10/01 03:52:30;;;;;;;18.70;2.90;;;;;;;21.27;62.08;101628.22;2102339;28;20052;-73
2022/10/01 03:53:53;;;;;;;17.90;3.15;;;;;;;21.28;61.87;101621.03;2099098;28;20548;-73
2022/10/01 03:55:16;;;;;;;14.20;3.47;;;;;;;21.28;62.00;101621.03;2110909;28;20039;-73
2022/10/01 03:56:39;;;;;;;17.88;3.13;;;;;;;21.28;61.97;101626.41;2096823;28;20052;-73
2022/10/01 03:58:01;;;;;;;18.13;3.50;;;;;;;21.26;62.04;101617.50;2094317;28;20387;-73
2022/10/01 03:59:25;;;;;;;17.60;3.13;;;;;;;21.24;62.10;101624.69;2100862;28;20592;-73
2022/10/01 04:00:46;;;;;;;16.05;3.85;;;;;;;21.20;61.91;101617.59;2104409;28;20134;-73
2022/10/01 04:02:10;;;;;;;20.23;3.83;;;;;;;21.18;61.97;101623.00;2102462;28;20534;-73
2022/10/01 04:03:33;;;;;;;14.02;3.03;;;;;;;21.17;62.36;101615.84;2096696;28;20045;-74
2022/10/01 04:04:55;;;;;;;14.95;2.78;;;;;;;21.15;62.31;101617.63;2090300;28;20140;-74
2022/10/01 04:06:17;;;;;;;17.55;3.38;;;;;;;21.16;62.35;101624.81;2099754;28;20040;-73
2022/10/01 04:07:42;;;;;;;17.10;3.45;;;;;;;21.15;62.44;101622.09;2094047;28;20048;-73
2022/10/01 04:09:06;;;;;;;19.13;3.67;;;;;;;21.11;62.52;101623.06;2100159;28;20050;-73
2022/10/01 04:10:28;;;;;;;21.42;3.30;;;;;;;21.07;62.90;101627.56;2103136;28;20051;-73
2022/10/01 04:11:51;;;;;;;17.58;3.28;;;;;;;21.07;62.99;101627.56;2110753;28;20043;-73
2022/10/01 04:13:14;;;;;;;16.05;3.00;;;;;;;21.08;62.95;101613.25;2104865;28;20040;-73
2022/10/01 04:14:35;;;;;;;16.73;2.97;;;;;;;21.11;63.03;101615.91;2103369;28;20127;-73
2022/10/01 04:15:58;;;;;;;18.13;3.83;;;;;;;21.14;63.05;101618.53;2095731;28;20051;-73
2022/10/01 04:17:19;;;;;;;21.65;3.50;;;;;;;21.19;62.96;101618.50;2091406;28;20044;-73
2022/10/01 04:18:44;;;;;;;16.35;3.63;;;;;;;21.21;62.99;101614.88;2099354;28;20278;-73
2022/10/01 04:20:06;;;;;;;11.75;3.50;;;;;;;21.18;63.06;101627.47;2102069;28;20622;-73
2022/10/01 04:21:28;;;;;;;;;;;;;;;21.15;63.09;101620.31;2109023;28;20061;-73
2022/10/01 04:22:49;;;;;;;23.92;3.75;;;;;;;21.17;63.10;101626.59;2106192;28;19920;-74
2022/10/01 04:24:12;;;;;;;13.00;3.13;;;;;;;21.20;63.09;101618.47;2096330;28;20147;-73
2022/10/01 04:25:35;;;;;;;18.05;3.90;;;;;;;21.24;62.83;101630.97;2105776;28;20135;-73
2022/10/01 04:26:58;;;;;;;15.63;3.42;;;;;;;21.24;62.78;101624.69;2107716;28;20051;-73
2022/10/01 04:28:19;;;;;;;21.13;3.83;;;;;;;21.24;62.35;101622.00;2103893;28;20056;-73
2022/10/01 04:29:42;;;;;;;23.05;3.28;;;;;;;21.25;62.20;101619.31;2098953;28;20048;-73
2022/10/01 04:32:44;;;;;;;14.82;3.28;;;;;;;21.31;61.91;101618.31;2112677;28;20518;-73
2022/10/01 04:34:08;;;;;;;29.52;4.00;;;;;;;21.35;61.99;101615.56;2101922;28;20047;-73
2022/10/01 04:35:30;;;;;;;17.33;3.85;;;;;;;21.42;61.71;101622.63;2110627;28;20546;-74
2022/10/01 04:36:52;;;;;;;20.45;4.22;;;;;;;21.48;61.89;101622.53;2104777;28;20052;-73
2022/10/01 04:38:15;;;;;;;18.08;3.90;;;;;;;21.56;62.04;101622.41;2098884;28;20443;-73
2022/10/01 04:39:39;;;;;;;14.73;3.70;;;;;;;21.63;62.07;101625.88;2100023;28;20051;-73
2022/10/01 04:41:00;;;;;;;15.05;3.33;;;;;;;21.67;62.04;101630.28;2094088;28;20059;-73
2022/10/01 04:42:23;;;;;;;11.85;2.72;;;;;;;21.69;62.07;101629.38;2107438;28;20563;-73
2022/10/01 04:43:46;;;;;;;20.98;3.45;;;;;;;21.75;61.63;101633.75;2110206;28;20048;-73
2022/10/01 04:45:09;;;;;;;18.17;3.08;;;;;;;21.83;61.16;101624.66;2104756;28;20663;-73
2022/10/01 04:46:31;;;;;;;18.05;3.13;;;;;;;21.95;60.81;101630.72;2102262;28;20048;-73
2022/10/01 04:47:54;;;;;;;17.90;2.90;;;;;;;22.06;60.48;101623.38;2093621;28;20133;-73
2022/10/01 04:49:18;;;;;;;22.55;2.85;;;;;;;22.14;60.10;101627.72;2091349;28;20090;-73
2022/10/01 04:50:44;;;;;;;18.85;3.05;;;;;;;22.22;59.74;101630.28;2099963;28;20047;-74
2022/10/01 04:52:07;;;;;;;18.77;3.72;;;;;;;22.32;59.44;101636.38;2106803;28;20518;-74
2022/10/01 04:53:29;;;;;;;21.25;3.38;;;;;;;22.42;59.08;101632.59;2104348;28;20040;-73
2022/10/01 04:54:51;;;;;;;19.08;2.92;;;;;;;22.52;58.52;101628.78;2098689;28;20408;-73
2022/10/01 04:56:13;;;;;;;11.23;2.40;;;;;;;22.68;58.04;101635.66;2099110;28;20043;-74
2022/10/01 04:57:36;;;;;;;15.25;2.67;;;;;;;22.80;57.60;101637.22;2101688;28;20396;-74
2022/10/01 04:58:59;;;;;;;20.92;2.90;;;;;;;22.88;57.87;101640.66;2101859;28;20083;-74
2022/10/01 05:00:23;;;;;;;12.32;2.30;;;;;;;22.94;58.01;101633.34;2110835;28;20040;-73
2022/10/01 05:01:45;;;;;;;14.88;2.63;;;;;;;23.03;58.00;101632.25;2096345;28;20045;-74
2022/10/01 05:03:07;;;;;;;18.05;3.65;;;;;;;23.11;58.07;101632.06;2107461;28;20122;-74
2022/10/01 05:04:31;;;;;;;15.90;2.10;;;;;;;23.22;57.91;101628.22;2106460;28;20054;-74
2022/10/01 05:05:53;;;;;;;13.52;2.40;;;;;;;23.30;57.54;101626.22;2101443;28;20483;-73
2022/10/01 05:07:16;;;;;;;15.38;2.15;;;;;;;23.40;56.97;101626.91;2093553;28;20040;-74
2022/10/01 05:08:37;;;;;;;15.68;2.58;;;;;;;23.47;56.66;101620.47;2103128;28;20403;-73
2022/10/01 05:10:00;;;;;;;10.55;2.05;;;;;;;23.57;56.52;101622.03;2110385;28;20043;-74
2022/10/01 05:11:23;;;;;;;14.30;2.08;;;;;;;23.67;56.38;101622.69;2101099;28;20148;-74
2022/10/01 05:12:47;;;;;;;14.10;2.35;;;;;;;23.77;56.09;101618.84;2099221;28;20048;-73
2022/10/01 05:14:08;;;;;;;13.80;2.60;;;;;;;23.90;56.30;101619.41;2096032;28;20037;-73
2022/10/01 05:15:31;;;;;;;13.82;2.53;;;;;;;24.02;56.16;101627.22;2106575;28;20040;-73
2022/10/01 05:16:53;;;;;;;16.98;2.63;;;;;;;24.12;56.64;101626.91;2108280;28;20071;-74
2022/10/01 05:18:15;;;;;;;13.02;2.28;;;;;;;24.20;56.61;101626.75;2112675;28;20134;-73
2022/10/01 05:19:38;;;;;;;15.35;2.20;;;;;;;24.32;56.95;101630.91;2111922;28;20131;-74
2022/10/01 05:21:05;;;;;;;12.88;2.45;;;;;;;24.42;57.08;101633.31;2107415;28;20146;-74
2022/10/01 05:22:26;;;;;;;20.33;3.80;;;;;;;24.56;57.19;101635.63;2099879;28;20079;-74
2022/10/01 05:23:49;;;;;;;12.10;2.85;;;;;;;24.68;56.89;101635.28;2102401;28;20503;-73
2022/10/01 05:25:10;;;;;;;13.93;1.67;;;;;;;24.82;55.79;101643.88;2097440;28;20191;-74
2022/10/01 05:26:35;;;;;;;10.68;1.73;;;;;;;24.95;55.10;101644.44;2102424;28;20070;-74
2022/10/01 05:28:03;;;;;;;16.17;2.13;;;;;;;25.08;54.56;101645.81;2110661;28;20055;-74
2022/10/01 05:29:26;;;;;;;15.35;2.03;;;;;;;25.20;53.90;101653.59;2110753;28;20056;-74
2022/10/01 05:30:47;;;;;;;20.27;2.85;;;;;;;25.30;53.21;101652.34;2104539;28;20048;-73
2022/10/01 05:32:11;;;;;;;11.05;1.98;;;;;;;25.41;52.84;101647.50;2100102;28;20040;-74
2022/10/01 05:33:33;;;;;;;11.70;1.85;;;;;;;25.52;52.62;101652.59;2101003;28;20044;-73
2022/10/01 05:34:57;;;;;;;9.02;1.42;;;;;;;25.60;52.33;101646.97;2092621;28;20137;-74
2022/10/01 05:36:18;;;;;;;19.52;1.85;;;;;;;25.71;52.07;101653.78;2099304;28;20036;-74
2022/10/01 05:37:41;;;;;;;13.77;2.00;;;;;;;25.78;51.51;101658.06;2100067;28;20047;-73
2022/10/01 05:39:03;;;;;;;12.65;1.52;;;;;;;25.94;50.67;101654.81;2102643;28;20055;-73
2022/10/01 05:40:27;;;;;;;10.43;1.42;;;;;;;26.05;50.61;101645.44;2109975;28;20071;-74
2022/10/01 05:41:49;;;;;;;9.20;1.60;;;;;;;26.17;49.71;101647.69;2108417;28;20059;-73
2022/10/01 05:43:12;;;;;;;11.95;1.67;;;;;;;26.29;49.62;101653.66;2101503;28;20044;-73
2022/10/01 05:44:36;;;;;;;11.45;1.42;;;;;;;26.39;49.48;101647.84;2101739;28;20302;-74
2022/10/01 05:46:01;;;;;;;6.38;1.80;;;;;;;26.50;49.68;101651.06;2110642;28;20051;-73
2022/10/01 05:47:24;;;;;;;9.18;1.52;;;;;;;26.65;49.35;101644.19;2104324;28;20068;-73
2022/10/01 05:48:50;;;;;;;13.07;3.05;;;;;;;26.81;48.88;101647.22;2111510;28;20046;-74
2022/10/01 05:50:13;;;;;;;15.20;1.75;;;;;;;26.93;48.45;101649.50;2110771;28;20055;-73
2022/10/01 05:51:36;;;;;;;6.82;1.88;;;;;;;27.04;48.32;101650.00;2095495;28;20055;-74
2022/10/01 05:52:58;;;;;;;9.55;1.23;;;;;;;27.17;48.17;101650.41;2099195;28;20142;-73
2022/10/01 05:54:23;;;;;;;;;;;;;;;27.25;48.36;101651.84;2098612;28;20032;-73
2022/10/01 05:55:46;;;;;;;11.20;2.03;;;;;;;27.37;48.20;101640.50;2107796;28;19969;-74
2022/10/01 05:57:08;;;;;;;12.43;1.50;;;;;;;27.54;47.33;101647.13;2110147;28;20051;-73
2022/10/01 05:58:31;;;;;;;8.68;1.48;;;;;;;27.67;46.51;101651.09;2110162;28;20048;-74
2022/10/01 05:59:52;;;;;;;6.35;1.25;;;;;;;27.74;46.60;101647.19;2104628;28;20040;-73
2022/10/01 06:01:15;;;;;;;12.93;3.67;;;;;;;27.88;46.33;101657.47;2101425;28;20105;-74
2022/10/01 06:02:36;;;;;;;9.50;1.35;;;;;;;28.03;46.16;101659.53;2104285;28;20077;-74
2022/10/01 06:03:58;;;;;;;6.35;2.08;;;;;;;28.11;46.16;101660.97;2107110;28;20048;-74
2022/10/01 06:05:23;;;;;;;13.80;1.40;;;;;;;28.31;46.38;101667.41;2101588;28;20309;-74
2022/10/01 06:06:45;;;;;;;11.23;3.22;;;;;;;28.41;46.37;101658.81;2101408;28;20502;-74
2022/10/01 06:08:10;;;;;;;14.30;2.08;;;;;;;28.51;46.18;101660.16;2106818;28;20526;-74
2022/10/01 06:09:31;;;;;;;13.73;1.58;;;;;;;28.63;46.26;101669.56;2101882;28;20685;-74
2022/10/01 06:10:59;;;;;;;6.95;1.35;;;;;;;28.75;46.25;101669.06;2098038;28;20083;-71
2022/10/01 06:12:22;;;;;;;15.63;1.73;;;;;;;28.86;46.09;101668.56;2108937;28;20136;-71
2022/10/01 06:13:45;;;;;;;8.88;1.58;;;;;;;29.01;45.89;101673.31;2092570;28;20048;-71
2022/10/01 06:15:08;;;;;;;8.43;1.42;;;;;;;29.16;45.02;101674.41;2096376;28;20044;-71
2022/10/01 06:16:30;;;;;;;12.30;1.88;;;;;;;29.27;44.06;101680.25;2097876;28;20048;-72
2022/10/01 06:17:52;;;;;;;12.50;2.35;;;;;;;29.40;43.40;101677.84;2101722;28;20044;-71
2022/10/01 06:19:16;;;;;;;8.63;1.75;;;;;;;29.49;42.48;101682.84;2101586;28;20561;-73
2022/10/01 06:20:40;;;;;;;13.82;1.50;;;;;;;29.68;41.50;101692.75;2101856;28;20048;-74
2022/10/01 06:22:05;;;;;;;11.38;1.38;;;;;;;29.82;40.74;101686.63;2101491;28;20032;-74
2022/10/01 06:23:28;;;;;;;11.70;1.83;;;;;;;29.97;40.36;101685.91;2112424;28;20043;-73
2022/10/01 06:24:50;;;;;;;16.20;1.50;;;;;;;30.10;39.87;101681.59;2108949;28;20556;-74
2022/10/01 06:26:12;;;;;;;10.68;1.63;;;;;;;30.21;39.65;101693.78;2102795;28;20054;-74
2022/10/01 06:27:33;;;;;;;14.05;1.85;;;;;;;30.30;40.12;101690.59;2106898;28;20088;-71
2022/10/01 06:28:56;;;;;;;18.30;2.67;;;;;;;30.41;40.82;101688.19;2096550;28;20056;-71
2022/10/01 06:30:17;;;;;;;15.90;2.20;;;;;;;30.49;41.18;101694.16;2102978;28;20484;-71